createdAt,value
2019-06-01T00:00:20.009Z,10.93
2019-06-01T00:02:56.124Z,10.78
2019-06-01T00:05:24.030Z,11.18
2019-06-01T00:07:55.057Z,11.48
2019-06-01T00:10:26.083Z,10.72
2019-06-01T00:12:57.102Z,11.18
2019-06-01T00:15:28.226Z,11.12
2019-06-01T00:17:59.152Z,11.43
2019-06-01T00:20:30.173Z,11.65
2019-06-01T00:23:01.102Z,12.85
2019-06-01T00:25:32.110Z,12.98
2019-06-01T00:28:03.250Z,13.13
2019-06-01T00:30:34.240Z,11.65
2019-06-01T00:33:05.284Z,13.28
2019-06-01T00:35:36.297Z,12.28
2019-06-01T00:38:07.342Z,12.73
2019-06-01T00:40:38.274Z,13.22
2019-06-01T00:43:09.203Z,12.28
2019-06-01T00:45:40.606Z,12.53
2019-06-01T00:48:11.692Z,13.08
2019-06-01T00:50:43.139Z,12.15
2019-06-01T00:53:14.385Z,12.35
2019-06-01T00:58:18.399Z,13.08
2019-06-01T01:03:22.319Z,12.23
2019-06-01T01:08:24.551Z,13.70
2019-06-01T01:13:27.069Z,12.82
2019-06-01T01:15:58.193Z,12.85
2019-06-01T01:18:30.061Z,13.72
2019-06-01T01:21:01.071Z,12.68
2019-06-01T01:23:32.016Z,13.03
2019-06-01T01:26:03.534Z,12.78
2019-06-01T01:28:34.609Z,12.75
2019-06-01T01:31:13.415Z,12.88
2019-06-01T01:33:38.379Z,12.10
2019-06-01T01:36:09.392Z,12.43
2019-06-01T01:38:40.639Z,11.90
2019-06-01T01:43:42.686Z,11.90
2019-06-01T01:46:13.703Z,11.68
2019-06-01T01:48:44.719Z,12.05
2019-06-01T01:51:15.619Z,12.47
2019-06-01T01:53:46.664Z,12.55
2019-06-01T01:56:17.624Z,12.75
2019-06-01T01:58:48.687Z,12.28
2019-06-01T02:01:22.850Z,12.98
2019-06-01T02:03:53.670Z,11.83
2019-06-01T02:06:28.956Z,12.10
2019-06-01T02:08:59.343Z,11.88
2019-06-01T02:11:30.412Z,12.82
2019-06-01T02:14:02.121Z,13.00
2019-06-01T02:16:33.384Z,11.63
2019-06-01T02:19:04.420Z,12.70
2019-06-01T02:21:35.310Z,12.40
2019-06-01T02:24:06.370Z,12.05
2019-06-01T02:26:37.465Z,12.55
2019-06-01T02:29:08.411Z,12.58
2019-06-01T02:31:42.385Z,12.23
2019-06-01T02:34:12.391Z,11.93
2019-06-01T02:39:15.180Z,12.05
2019-06-01T02:41:46.292Z,12.20
2019-06-01T02:44:17.311Z,12.15
2019-06-01T02:46:48.233Z,12.73
2019-06-01T02:49:19.146Z,11.40
2019-06-01T02:51:50.034Z,12.10
2019-06-01T02:54:21.168Z,12.18
2019-06-01T02:56:52.309Z,12.37
2019-06-01T02:59:23.351Z,12.53
2019-06-01T03:01:58.205Z,12.23
2019-06-01T03:04:28.208Z,11.57
2019-06-01T03:06:59.594Z,11.15
2019-06-01T03:09:32.599Z,12.23
2019-06-01T03:12:04.369Z,11.18
2019-06-01T03:14:37.933Z,11.30
2019-06-01T03:17:12.655Z,11.57
2019-06-01T03:19:47.434Z,11.63
2019-06-01T03:22:21.434Z,11.85
2019-06-01T03:24:56.217Z,11.75
2019-06-01T03:27:28.923Z,11.85
2019-06-01T03:30:05.806Z,12.18
2019-06-01T03:32:37.507Z,12.53
2019-06-01T03:35:10.737Z,11.83
2019-06-01T03:37:41.741Z,12.03
2019-06-01T03:40:23.143Z,12.15
2019-06-01T03:42:45.914Z,11.60
2019-06-01T03:45:17.046Z,11.10
2019-06-01T03:47:48.082Z,12.50
2019-06-01T03:50:19.015Z,12.55
2019-06-01T03:52:50.120Z,11.93
2019-06-01T03:55:21.034Z,13.13
2019-06-01T03:57:52.047Z,13.43
2019-06-01T04:00:23.091Z,12.75
2019-06-01T04:02:53.993Z,12.37
2019-06-01T04:05:25.055Z,12.20
2019-06-01T04:07:56.105Z,12.30
2019-06-01T04:10:27.155Z,11.73
2019-06-01T04:12:58.275Z,11.78
2019-06-01T04:15:29.416Z,11.40
2019-06-01T04:18:01.845Z,11.53
2019-06-01T04:20:33.020Z,11.93
2019-06-01T04:23:04.570Z,12.43
2019-06-01T04:25:35.911Z,12.10
2019-06-01T04:30:45.214Z,11.75
2019-06-01T04:33:16.258Z,11.85
2019-06-01T04:35:47.299Z,11.75
2019-06-01T04:38:18.193Z,12.68
2019-06-01T04:40:49.152Z,11.95
2019-06-01T04:43:20.113Z,12.30
2019-06-01T04:45:51.035Z,11.50
2019-06-01T04:48:22.038Z,12.07
2019-06-01T04:50:53.321Z,11.88
2019-06-01T04:53:24.418Z,12.13
2019-06-01T04:55:55.556Z,11.10
2019-06-01T04:58:26.544Z,12.10
2019-06-01T05:00:57.479Z,11.35
2019-06-01T05:03:28.489Z,11.55
2019-06-01T05:05:59.634Z,10.70
2019-06-01T05:08:30.527Z,10.93
2019-06-01T05:11:05.078Z,11.38
2019-06-01T05:13:34.271Z,11.70
2019-06-01T05:16:05.900Z,11.28
2019-06-01T05:18:37.002Z,10.43
2019-06-01T05:21:08.465Z,10.30
2019-06-01T05:23:39.423Z,9.63
2019-06-01T05:26:10.948Z,11.10
2019-06-01T05:28:42.043Z,10.10
2019-06-01T05:31:20.448Z,10.35
2019-06-01T05:33:45.791Z,9.90
2019-06-01T05:36:16.770Z,9.28
2019-06-01T05:38:47.715Z,10.35
2019-06-01T05:41:19.923Z,10.03
2019-06-01T05:43:50.978Z,9.73
2019-06-01T05:46:22.329Z,10.23
2019-06-01T05:48:53.327Z,9.90
2019-06-01T05:51:24.247Z,9.58
2019-06-01T05:53:55.159Z,10.03
2019-06-01T05:56:26.198Z,9.43
2019-06-01T05:58:57.310Z,9.90
2019-06-01T06:01:28.239Z,9.95
2019-06-01T06:03:59.143Z,9.48
2019-06-01T06:06:30.099Z,9.73
2019-06-01T06:09:01.086Z,10.15
2019-06-01T06:11:32.036Z,12.15
2019-06-01T06:14:03.533Z,10.70
2019-06-01T06:16:34.471Z,9.40
2019-06-01T06:19:05.497Z,9.35
2019-06-01T06:21:36.422Z,9.28
2019-06-01T06:24:07.327Z,9.23
2019-06-01T06:26:38.263Z,8.85
2019-06-01T06:29:09.164Z,10.20
2019-06-01T06:31:40.115Z,9.85
2019-06-01T06:34:11.019Z,8.55
2019-06-01T06:36:41.904Z,8.60
2019-06-01T06:39:13.655Z,8.63
2019-06-01T06:41:44.878Z,9.30
2019-06-01T06:46:47.561Z,8.65
2019-06-01T06:51:50.377Z,9.15
2019-06-01T06:56:52.784Z,9.00
2019-06-01T06:59:24.597Z,9.38
2019-06-01T07:01:55.632Z,8.73
2019-06-01T07:06:58.652Z,9.70
2019-06-01T07:12:00.441Z,9.15
2019-06-01T07:14:31.770Z,10.23
2019-06-01T07:17:03.050Z,10.10
2019-06-01T07:19:34.114Z,9.58
2019-06-01T07:24:36.232Z,10.38
2019-06-01T07:29:38.025Z,11.20
2019-06-01T07:34:42.782Z,13.08
2019-06-01T07:37:13.041Z,12.40
2019-06-01T07:39:43.965Z,12.43
2019-06-01T07:42:14.976Z,12.13
2019-06-01T07:44:45.998Z,12.60
2019-06-01T07:49:47.879Z,12.33
2019-06-01T07:52:20.154Z,11.80
2019-06-01T07:54:51.287Z,11.95
2019-06-01T07:59:54.718Z,11.40
2019-06-01T08:04:58.515Z,9.60
2019-06-01T08:10:00.658Z,9.98
2019-06-01T08:15:06.040Z,9.35
2019-06-01T08:17:37.055Z,9.65
2019-06-01T08:22:39.056Z,8.80
2019-06-01T08:27:44.526Z,8.55
2019-06-01T08:30:16.017Z,8.68
2019-06-01T08:32:46.923Z,7.58
2019-06-01T08:37:48.815Z,6.45
2019-06-01T08:42:50.774Z,7.28
2019-06-01T08:47:52.672Z,7.08
2019-06-01T08:52:54.844Z,6.92
2019-06-01T09:00:28.461Z,7.45
2019-06-01T09:02:59.735Z,7.92
2019-06-01T09:05:31.528Z,8.60
2019-06-01T09:08:02.893Z,7.92
2019-06-01T09:10:35.431Z,7.78
2019-06-01T09:13:06.766Z,8.15
2019-06-01T09:15:37.900Z,7.30
2019-06-01T09:18:08.811Z,8.03
2019-06-01T09:23:11.029Z,7.87
2019-06-01T09:25:42.190Z,7.50
2019-06-01T09:28:13.121Z,8.03
2019-06-01T09:33:15.127Z,7.70
2019-06-01T09:38:19.126Z,8.50
2019-06-01T09:40:50.296Z,7.90
2019-06-01T09:43:21.231Z,7.30
2019-06-01T09:48:24.629Z,7.97
2019-06-01T09:53:28.661Z,7.65
2019-06-01T09:55:59.567Z,7.40
2019-06-01T10:01:01.477Z,6.67
2019-06-01T10:06:03.889Z,6.47
2019-06-01T10:08:36.029Z,6.30
2019-06-01T10:11:07.384Z,5.92
2019-06-01T10:15:21.568Z,6.10
2019-06-01T10:16:19.061Z,6.53
2019-06-01T10:21:21.193Z,6.33
2019-06-01T10:23:52.250Z,5.97
2019-06-01T10:26:23.373Z,6.53
2019-06-01T10:28:54.332Z,6.20
2019-06-01T10:33:56.219Z,6.15
2019-06-01T10:38:58.020Z,5.95
2019-06-01T10:44:00.132Z,6.08
2019-06-01T10:46:31.791Z,6.05
2019-06-01T10:49:03.295Z,5.45
2019-06-01T10:51:34.218Z,5.62
2019-06-01T10:56:36.365Z,5.78
2019-06-01T10:59:07.355Z,6.20
2019-06-01T11:01:38.901Z,6.25
2019-06-01T11:04:10.195Z,6.50
2019-06-01T11:06:47.723Z,6.05
2019-06-01T11:09:14.276Z,6.08
2019-06-01T11:14:16.346Z,5.87
2019-06-01T11:19:20.446Z,5.55
2019-06-01T11:21:51.505Z,5.95
2019-06-01T11:26:53.321Z,5.03
2019-06-01T11:31:55.142Z,4.47
2019-06-01T11:37:05.078Z,5.80
2019-06-01T11:39:30.012Z,5.40
2019-06-01T11:44:31.898Z,5.33
2019-06-01T11:49:34.715Z,5.28
2019-06-01T11:52:05.764Z,5.15
2019-06-01T11:54:37.092Z,5.00
2019-06-01T11:57:08.160Z,4.47
2019-06-01T12:02:10.971Z,5.92
2019-06-01T12:04:42.023Z,4.62
2019-06-01T12:09:46.095Z,4.65
2019-06-01T12:12:17.191Z,5.10
2019-06-01T12:17:19.087Z,4.60
2019-06-01T12:22:20.959Z,4.10
2019-06-01T12:24:51.881Z,4.50
2019-06-01T12:29:53.719Z,4.97
2019-06-01T12:34:55.662Z,4.35
2019-06-01T12:37:45.495Z,4.10
2019-06-01T12:39:59.440Z,4.58
2019-06-01T12:45:02.243Z,4.65
2019-06-01T12:47:33.494Z,5.30
2019-06-01T12:50:07.811Z,5.10
2019-06-01T12:52:40.024Z,4.85
2019-06-01T12:55:11.797Z,4.62
2019-06-01T12:57:42.971Z,4.53
2019-06-01T13:00:15.968Z,4.58
2019-06-01T13:02:56.475Z,4.30
2019-06-01T13:05:20.093Z,4.20
2019-06-01T13:08:01.505Z,4.58
2019-06-01T13:10:24.199Z,4.70
2019-06-01T13:12:55.135Z,4.47
2019-06-01T13:15:26.174Z,4.67
2019-06-01T13:17:57.248Z,4.90
2019-06-01T13:20:28.393Z,4.65
2019-06-01T13:22:59.446Z,4.22
2019-06-01T13:25:30.449Z,4.15
2019-06-01T13:28:01.493Z,4.08
2019-06-01T13:30:32.470Z,3.77
2019-06-01T13:33:03.692Z,3.90
2019-06-01T13:35:34.840Z,4.10
2019-06-01T13:38:12.253Z,4.25
2019-06-01T13:40:38.838Z,3.83
2019-06-01T13:43:09.867Z,3.17
2019-06-01T13:45:41.179Z,3.42
2019-06-01T13:48:12.089Z,3.00
2019-06-01T13:50:43.536Z,3.30
2019-06-01T13:53:14.698Z,3.83
2019-06-01T13:55:46.103Z,3.83
2019-06-01T13:58:17.349Z,3.83
2019-06-01T14:00:48.446Z,3.65
2019-06-01T14:03:19.480Z,3.65
2019-06-01T14:05:50.960Z,3.10
2019-06-01T14:08:29.132Z,3.08
2019-06-01T14:10:55.532Z,3.15
2019-06-01T14:13:26.665Z,3.20
2019-06-01T14:15:57.697Z,3.40
2019-06-01T14:18:28.737Z,2.92
2019-06-01T14:20:59.637Z,2.85
2019-06-01T14:23:30.639Z,3.17
2019-06-01T14:26:01.697Z,3.30
2019-06-01T14:28:32.739Z,3.02
2019-06-01T14:31:03.749Z,3.10
2019-06-01T14:33:34.768Z,3.02
2019-06-01T14:36:05.895Z,3.33
2019-06-01T14:38:46.664Z,2.90
2019-06-01T14:41:09.861Z,3.30
2019-06-01T14:43:40.991Z,3.15
2019-06-01T14:46:12.151Z,3.27
2019-06-01T14:48:43.054Z,2.80
2019-06-01T14:51:14.206Z,2.65
2019-06-01T14:53:45.122Z,2.83
2019-06-01T14:56:16.287Z,2.47
2019-06-01T14:58:47.818Z,2.40
2019-06-01T15:01:31.798Z,2.80
2019-06-01T15:03:52.309Z,2.50
2019-06-01T15:06:23.390Z,3.10
2019-06-01T15:09:10.571Z,2.80
2019-06-01T15:11:27.394Z,3.00
2019-06-01T15:13:58.607Z,3.12
2019-06-01T15:16:29.779Z,3.10
2019-06-01T15:19:01.873Z,2.55
2019-06-01T15:21:33.372Z,2.60
2019-06-01T15:24:04.479Z,2.65
2019-06-01T15:26:35.401Z,2.70
2019-06-01T15:29:06.346Z,2.80
2019-06-01T15:31:37.376Z,2.65
2019-06-01T15:34:08.541Z,2.50
2019-06-01T15:36:39.440Z,2.83
2019-06-01T15:39:24.330Z,2.65
2019-06-01T15:41:43.218Z,2.55
2019-06-01T15:44:14.288Z,2.35
2019-06-01T15:46:45.306Z,2.50
2019-06-01T15:49:16.382Z,2.58
2019-06-01T15:51:47.281Z,2.35
2019-06-01T15:54:18.304Z,2.77
2019-06-01T15:56:52.117Z,2.90
2019-06-01T15:59:23.251Z,2.83
2019-06-01T16:01:54.968Z,2.67
2019-06-01T16:04:26.151Z,2.20
2019-06-01T16:06:57.250Z,2.30
2019-06-01T16:09:42.292Z,2.40
2019-06-01T16:12:02.150Z,1.85
2019-06-01T16:14:33.189Z,1.95
2019-06-01T16:17:04.758Z,2.25
2019-06-01T16:19:35.973Z,2.52
2019-06-01T16:22:07.073Z,2.33
2019-06-01T16:24:38.088Z,2.40
2019-06-01T16:27:09.300Z,2.50
2019-06-01T16:29:40.340Z,2.58
2019-06-01T16:32:11.415Z,2.52
2019-06-01T16:34:42.480Z,2.40
2019-06-01T16:37:13.522Z,3.67
2019-06-01T16:39:58.409Z,3.60
2019-06-01T16:42:17.792Z,4.33
2019-06-01T16:44:48.908Z,4.85
2019-06-01T16:47:19.920Z,5.65
2019-06-01T16:49:51.035Z,4.70
2019-06-01T16:52:22.084Z,5.50
2019-06-01T16:54:53.215Z,5.75
2019-06-01T16:57:24.349Z,5.42
2019-06-01T16:59:56.325Z,5.47
2019-06-01T17:02:27.374Z,5.62
2019-06-01T17:04:58.624Z,6.70
2019-06-01T17:07:29.802Z,6.20
2019-06-01T17:10:19.267Z,6.25
2019-06-01T17:12:33.982Z,5.62
2019-06-01T17:15:07.163Z,5.67
2019-06-01T17:17:38.268Z,6.58
2019-06-01T17:20:34.246Z,6.53
2019-06-01T17:23:18.222Z,6.55
2019-06-01T17:25:38.303Z,6.58
2019-06-01T17:28:09.689Z,7.75
2019-06-01T17:30:40.897Z,5.90
2019-06-01T17:33:12.542Z,6.78
2019-06-01T17:35:43.684Z,7.20
2019-06-01T17:38:15.073Z,7.33
2019-06-01T17:40:46.167Z,6.22
2019-06-01T17:43:17.425Z,6.92
2019-06-01T17:45:48.551Z,7.20
2019-06-01T17:48:26.467Z,7.22
2019-06-01T17:50:52.742Z,7.10
2019-06-01T17:53:23.924Z,7.75
2019-06-01T17:55:55.056Z,7.85
2019-06-01T17:58:26.129Z,7.08
2019-06-01T18:00:57.456Z,8.25
2019-06-01T18:03:28.723Z,7.75
2019-06-01T18:05:59.831Z,7.78
2019-06-01T18:08:30.999Z,7.05
2019-06-01T18:11:02.125Z,7.17
2019-06-01T18:13:33.395Z,7.53
2019-06-01T18:16:04.692Z,7.05
2019-06-01T18:18:35.873Z,6.53
2019-06-01T18:23:37.845Z,7.60
2019-06-01T18:28:40.348Z,6.40
2019-06-01T18:33:42.613Z,6.22
2019-06-01T18:36:13.957Z,6.45
2019-06-01T18:38:45.073Z,6.87
2019-06-01T18:43:49.215Z,6.45
2019-06-01T18:48:51.231Z,6.28
2019-06-01T18:53:53.263Z,6.72
2019-06-01T18:58:55.154Z,6.30
2019-06-01T19:03:58.152Z,6.17
2019-06-01T19:06:29.159Z,5.85
2019-06-01T19:09:02.786Z,6.28
2019-06-01T19:11:36.114Z,6.33
2019-06-01T19:14:07.880Z,6.55
2019-06-01T19:16:40.025Z,6.20
2019-06-01T19:19:12.517Z,5.92
2019-06-01T19:21:43.566Z,6.12
2019-06-01T19:24:14.716Z,6.67
2019-06-01T19:26:45.993Z,6.15
2019-06-01T19:31:48.253Z,6.22
2019-06-01T19:36:52.177Z,6.28
2019-06-01T19:39:23.664Z,6.62
2019-06-01T19:41:58.154Z,6.40
2019-06-01T19:44:28.391Z,6.65
2019-06-01T19:46:59.507Z,7.70
2019-06-01T19:49:30.571Z,7.17
2019-06-01T19:52:01.475Z,6.85
2019-06-01T19:54:32.725Z,7.10
2019-06-01T19:57:03.849Z,7.00
2019-06-01T20:02:22.561Z,6.67
2019-06-01T20:04:38.695Z,7.87
2019-06-01T20:07:11.000Z,7.33
2019-06-01T20:09:42.261Z,7.50
2019-06-01T20:14:46.988Z,6.80
2019-06-01T20:19:49.017Z,7.45
2019-06-01T20:24:52.327Z,6.35
2019-06-01T20:27:23.535Z,6.35
2019-06-01T20:32:25.549Z,6.83
2019-06-01T20:34:56.567Z,6.70
2019-06-01T20:37:27.607Z,5.83
2019-06-01T20:39:58.627Z,6.58
2019-06-01T20:42:32.222Z,6.55
2019-06-01T20:45:04.758Z,6.67
2019-06-01T20:47:35.866Z,6.53
2019-06-01T20:50:07.990Z,6.65
2019-06-01T20:52:38.865Z,6.25
2019-06-01T20:55:10.310Z,6.85
2019-06-01T20:57:41.306Z,6.75
2019-06-01T21:00:13.628Z,6.83
2019-06-01T21:02:44.760Z,6.70
2019-06-01T21:07:47.011Z,6.67
2019-06-01T21:10:20.496Z,6.75
2019-06-01T21:12:51.595Z,6.87
2019-06-01T21:15:23.402Z,7.20
2019-06-01T21:17:54.443Z,6.97
2019-06-01T21:20:29.835Z,6.70
2019-06-01T21:22:58.637Z,7.65
2019-06-01T21:28:00.666Z,7.45
2019-06-01T21:30:31.715Z,7.35
2019-06-01T21:33:02.837Z,8.00
2019-06-01T21:38:05.074Z,9.65
2019-06-01T21:40:36.274Z,8.40
2019-06-01T21:45:40.180Z,8.03
2019-06-01T21:48:11.277Z,8.60
2019-06-01T21:50:42.423Z,8.08
2019-06-01T21:53:13.620Z,7.67
2019-06-01T21:58:16.464Z,8.38
2019-06-01T22:00:48.283Z,8.38
2019-06-01T22:03:20.960Z,8.50
2019-06-01T22:05:52.628Z,8.00
2019-06-01T22:08:23.808Z,8.23
2019-06-01T22:13:27.143Z,8.20
2019-06-01T22:15:58.633Z,8.15
2019-06-01T22:18:29.672Z,8.73
2019-06-01T22:21:00.697Z,7.78
2019-06-01T22:23:31.841Z,8.00
2019-06-01T22:26:03.371Z,8.10
2019-06-01T22:28:36.222Z,7.97
2019-06-01T22:31:07.321Z,7.28
2019-06-01T22:33:38.502Z,8.05
2019-06-01T22:36:09.496Z,8.48
2019-06-01T22:38:40.529Z,7.95
2019-06-01T22:41:11.522Z,8.40
2019-06-01T22:43:46.880Z,8.63
2019-06-01T22:46:15.398Z,7.87
2019-06-01T22:48:46.449Z,7.37
2019-06-01T22:51:17.442Z,7.58
2019-06-01T22:53:48.443Z,7.65
2019-06-01T22:56:19.453Z,8.10
2019-06-01T22:58:51.677Z,7.62
2019-06-01T23:01:22.908Z,7.22
2019-06-01T23:03:54.024Z,7.83
2019-06-01T23:06:24.992Z,8.18
2019-06-01T23:08:55.986Z,8.48
2019-06-01T23:11:27.539Z,7.20
2019-06-01T23:13:58.719Z,7.28
2019-06-01T23:16:29.821Z,7.62
2019-06-01T23:21:32.084Z,7.67
2019-06-01T23:24:03.301Z,8.33
2019-06-01T23:29:05.315Z,7.00
2019-06-01T23:31:36.208Z,8.05
2019-06-01T23:34:07.141Z,7.67
2019-06-01T23:36:38.245Z,7.67
2019-06-01T23:39:09.282Z,7.55
2019-06-01T23:41:40.389Z,8.58
2019-06-01T23:44:12.660Z,7.78
2019-06-01T23:46:44.185Z,8.45
2019-06-01T23:51:46.238Z,8.45
2019-06-01T23:54:20.023Z,8.70
2019-06-01T23:56:51.030Z,9.15
2019-06-01T23:59:21.959Z,8.30
